sensor_id;sensor_type;location;lat;lon;timestamp;pressure;altitude;pressure_sealevel;temperature;humidity
29909;BME280;36247;51.952;6.146;2023-11-21T00:01:16;100935.59;;;7.23;100.00
29909;BME280;36247;51.952;6.146;2023-11-21T00:03:42;100934.97;;;7.32;100.00
29909;BME280;36247;51.952;6.146;2023-11-21T00:06:08;100933.09;;;7.28;100.00
29909;BME280;36247;51.952;6.146;2023-11-21T00:08:37;100930.41;;;7.26;100.00
29909;BME280;36247;51.952;6.146;2023-11-21T00:11:03;100931.94;;;7.19;100.00
29909;BME280;36247;51.952;6.146;2023-11-21T00:13:31;100925.88;;;7.22;100.00
29909;BME280;36247;51.952;6.146;2023-11-21T00:15:57;100934.78;;;7.26;100.00
29909;BME280;36247;51.952;6.146;2023-11-21T00:18:22;100933.09;;;7.28;100.00
29909;BME280;36247;51.952;6.146;2023-11-21T00:20:48;100945.66;;;7.07;100.00
29909;BME280;36247;51.952;6.146;2023-11-21T00:23:14;100942.63;;;6.94;100.00
29909;BME280;36247;51.952;6.146;2023-11-21T00:25:39;100944.97;;;6.84;100.00
29909;BME280;36247;51.952;6.146;2023-11-21T00:28:06;100944.94;;;6.83;100.00
29909;BME280;36247;51.952;6.146;2023-11-21T00:30:31;100944.84;;;6.80;100.00
29909;BME280;36247;51.952;6.146;2023-11-21T00:32:57;100941.47;;;6.84;100.00
29909;BME280;36247;51.952;6.146;2023-11-21T00:35:24;100950.28;;;6.86;100.00
29909;BME280;36247;51.952;6.146;2023-11-21T00:37:50;100952.97;;;6.87;100.00
29909;BME280;36247;51.952;6.146;2023-11-21T00:40:15;100950.81;;;6.74;100.00
29909;BME280;36247;51.952;6.146;2023-11-21T00:42:44;100950.56;;;6.95;100.00
29909;BME280;36247;51.952;6.146;2023-11-21T00:45:11;100950.53;;;6.94;100.00
29909;BME280;36247;51.952;6.146;2023-11-21T00:47:36;100963.00;;;6.99;100.00
29909;BME280;36247;51.952;6.146;2023-11-21T00:50:02;100954.59;;;7.13;100.00
29909;BME280;36247;51.952;6.146;2023-11-21T00:52:29;100957.47;;;7.20;100.00
29909;BME280;36247;51.952;6.146;2023-11-21T00:54:54;100973.19;;;7.17;100.00
29909;BME280;36247;51.952;6.146;2023-11-21T00:57:19;100962.72;;;7.20;100.00
29909;BME280;36247;51.952;6.146;2023-11-21T00:59:45;100975.31;;;7.00;100.00
29909;BME280;36247;51.952;6.146;2023-11-21T01:02:11;100971.81;;;7.30;100.00
29909;BME280;36247;51.952;6.146;2023-11-21T01:04:36;100973.03;;;7.43;100.00
29909;BME280;36247;51.952;6.146;2023-11-21T01:07:03;100980.72;;;7.35;100.00
29909;BME280;36247;51.952;6.146;2023-11-21T01:09:29;100978.94;;;7.34;100.00
29909;BME280;36247;51.952;6.146;2023-11-21T01:11:55;100986.84;;;7.34;100.00
29909;BME280;36247;51.952;6.146;2023-11-21T01:14:20;100982.53;;;7.36;100.00
29909;BME280;36247;51.952;6.146;2023-11-21T01:16:46;100985.47;;;7.47;100.00
29909;BME280;36247;51.952;6.146;2023-11-21T01:19:12;100986.59;;;7.55;100.00
29909;BME280;36247;51.952;6.146;2023-11-21T01:21:38;100989.50;;;7.65;100.00
29909;BME280;36247;51.952;6.146;2023-11-21T01:24:04;100994.09;;;7.72;100.00
29909;BME280;36247;51.952;6.146;2023-11-21T01:26:33;100998.41;;;7.70;100.00
29909;BME280;36247;51.952;6.146;2023-11-21T01:28:58;101007.00;;;7.63;100.00
29909;BME280;36247;51.952;6.146;2023-11-21T01:31:24;101014.22;;;7.70;100.00
29909;BME280;36247;51.952;6.146;2023-11-21T01:33:54;101012.34;;;7.66;100.00
29909;BME280;36247;51.952;6.146;2023-11-21T01:36:20;101014.09;;;7.65;100.00
29909;BME280;36247;51.952;6.146;2023-11-21T01:38:47;101023.78;;;7.65;100.00
29909;BME280;36247;51.952;6.146;2023-11-21T01:41:14;101017.66;;;7.67;100.00
29909;BME280;36247;51.952;6.146;2023-11-21T01:43:42;101016.44;;;7.54;100.00
29909;BME280;36247;51.952;6.146;2023-11-21T01:46:08;101029.03;;;7.65;100.00
29909;BME280;36247;51.952;6.146;2023-11-21T01:48:35;101011.69;;;7.73;100.00
29909;BME280;36247;51.952;6.146;2023-11-21T01:51:01;101021.72;;;7.86;100.00
29909;BME280;36247;51.952;6.146;2023-11-21T01:53:27;101013.09;;;7.92;100.00
29909;BME280;36247;51.952;6.146;2023-11-21T01:55:55;101014.88;;;7.93;100.00
29909;BME280;36247;51.952;6.146;2023-11-21T01:58:20;101021.81;;;7.89;100.00
29909;BME280;36247;51.952;6.146;2023-11-21T02:00:47;101014.16;;;7.99;100.00
29909;BME280;36247;51.952;6.146;2023-11-21T02:03:18;101012.38;;;7.98;100.00
29909;BME280;36247;51.952;6.146;2023-11-21T02:05:44;101011.47;;;7.97;100.00
29909;BME280;36247;51.952;6.146;2023-11-21T02:08:09;101010.75;;;8.03;100.00
29909;BME280;36247;51.952;6.146;2023-11-21T02:10:36;101013.88;;;7.89;100.00
29909;BME280;36247;51.952;6.146;2023-11-21T02:13:03;101026.91;;;7.83;100.00
29909;BME280;36247;51.952;6.146;2023-11-21T02:15:29;101017.41;;;7.88;100.00
29909;BME280;36247;51.952;6.146;2023-11-21T02:17:54;101025.22;;;7.85;100.00
29909;BME280;36247;51.952;6.146;2023-11-21T02:20:21;101018.03;;;7.80;100.00
29909;BME280;36247;51.952;6.146;2023-11-21T02:22:51;101019.13;;;7.88;100.00
29909;BME280;36247;51.952;6.146;2023-11-21T02:25:27;101027.53;;;8.05;100.00
29909;BME280;36247;51.952;6.146;2023-11-21T02:27:57;101032.72;;;8.02;100.00
29909;BME280;36247;51.952;6.146;2023-11-21T02:30:23;101033.47;;;7.98;100.00
29909;BME280;36247;51.952;6.146;2023-11-21T02:32:52;101042.78;;;7.85;100.00
29909;BME280;36247;51.952;6.146;2023-11-21T02:35:22;101037.66;;;7.91;100.00
29909;BME280;36247;51.952;6.146;2023-11-21T02:37:49;101045.59;;;7.91;100.00
29909;BME280;36247;51.952;6.146;2023-11-21T02:40:14;101036.59;;;7.83;100.00
29909;BME280;36247;51.952;6.146;2023-11-21T02:42:44;101035.78;;;7.85;100.00
29909;BME280;36247;51.952;6.146;2023-11-21T02:45:20;101038.59;;;7.91;100.00
29909;BME280;36247;51.952;6.146;2023-11-21T02:47:50;101038.66;;;7.94;100.00
29909;BME280;36247;51.952;6.146;2023-11-21T02:50:16;101038.63;;;7.93;100.00
29909;BME280;36247;51.952;6.146;2023-11-21T02:52:41;101040.44;;;7.95;100.00
29909;BME280;36247;51.952;6.146;2023-11-21T02:55:07;101035.19;;;7.97;100.00
29909;BME280;36247;51.952;6.146;2023-11-21T02:57:32;101034.47;;;8.03;100.00
29909;BME280;36247;51.952;6.146;2023-11-21T02:59:59;101036.19;;;8.01;100.00
29909;BME280;36247;51.952;6.146;2023-11-21T03:02:25;101037.94;;;8.00;100.00
29909;BME280;36247;51.952;6.146;2023-11-21T03:04:51;101035.44;;;8.05;100.00
29909;BME280;36247;51.952;6.146;2023-11-21T03:07:18;101036.25;;;8.02;100.00
29909;BME280;36247;51.952;6.146;2023-11-21T03:09:45;101046.13;;;8.09;100.00
29909;BME280;36247;51.952;6.146;2023-11-21T03:12:11;101052.19;;;8.07;100.00
29909;BME280;36247;51.952;6.146;2023-11-21T03:14:41;101046.06;;;8.08;100.00
29909;BME280;36247;51.952;6.146;2023-11-21T03:17:06;101047.47;;;7.95;100.00
29909;BME280;36247;51.952;6.146;2023-11-21T03:19:32;101050.56;;;8.12;100.00
29909;BME280;36247;51.952;6.146;2023-11-21T03:21:57;101046.06;;;8.08;100.00
29909;BME280;36247;51.952;6.146;2023-11-21T03:24:23;101051.34;;;8.08;100.00
29909;BME280;36247;51.952;6.146;2023-11-21T03:26:48;101051.34;;;8.08;100.00
29909;BME280;36247;51.952;6.146;2023-11-21T03:29:14;101047.75;;;8.06;100.00
29909;BME280;36247;51.952;6.146;2023-11-21T03:31:40;101054.13;;;8.12;100.00
29909;BME280;36247;51.952;6.146;2023-11-21T03:34:06;101052.94;;;8.03;100.00
29909;BME280;36247;51.952;6.146;2023-11-21T03:36:32;101058.06;;;7.97;100.00
29909;BME280;36247;51.952;6.146;2023-11-21T03:38:58;101058.22;;;8.03;100.00
29909;BME280;36247;51.952;6.146;2023-11-21T03:41:23;101057.38;;;8.04;100.00
29909;BME280;36247;51.952;6.146;2023-11-21T03:43:48;101063.63;;;8.07;100.00
29909;BME280;36247;51.952;6.146;2023-11-21T03:46:14;101062.78;;;8.08;100.00
29909;BME280;36247;51.952;6.146;2023-11-21T03:48:40;101062.75;;;8.07;100.00
29909;BME280;36247;51.952;6.146;2023-11-21T03:51:07;101067.97;;;8.05;100.00
29909;BME280;36247;51.952;6.146;2023-11-21T03:53:33;101069.66;;;8.02;100.00
29909;BME280;36247;51.952;6.146;2023-11-21T03:56:02;101070.75;;;8.10;100.00
29909;BME280;36247;51.952;6.146;2023-11-21T03:58:29;101066.16;;;8.03;100.00
29909;BME280;36247;51.952;6.146;2023-11-21T04:00:54;101067.84;;;8.01;100.00
29909;BME280;36247;51.952;6.146;2023-11-21T04:03:19;101072.28;;;8.02;100.00
29909;BME280;36247;51.952;6.146;2023-11-21T04:05:45;101077.91;;;8.14;100.00
29909;BME280;36247;51.952;6.146;2023-11-21T04:08:11;101075.31;;;8.16;100.00
29909;BME280;36247;51.952;6.146;2023-11-21T04:10:36;101077.69;;;8.06;100.00
29909;BME280;36247;51.952;6.146;2023-11-21T04:13:02;101075.72;;;7.99;100.00
29909;BME280;36247;51.952;6.146;2023-11-21T04:15:27;101069.78;;;8.06;100.00
29909;BME280;36247;51.952;6.146;2023-11-21T04:17:53;101078.63;;;8.08;100.00
29909;BME280;36247;51.952;6.146;2023-11-21T04:20:18;101085.75;;;8.11;100.00
29909;BME280;36247;51.952;6.146;2023-11-21T04:22:44;101089.38;;;8.16;100.00
29909;BME280;36247;51.952;6.146;2023-11-21T04:25:11;101090.97;;;8.09;100.00
29909;BME280;36247;51.952;6.146;2023-11-21T04:27:41;101098.84;;;8.08;100.00
29909;BME280;36247;51.952;6.146;2023-11-21T04:30:10;101097.25;;;8.15;100.00
29909;BME280;36247;51.952;6.146;2023-11-21T04:32:36;101112.72;;;8.01;100.00
29909;BME280;36247;51.952;6.146;2023-11-21T04:35:02;101101.63;;;8.12;100.00
29909;BME280;36247;51.952;6.146;2023-11-21T04:37:29;101101.03;;;7.92;100.00
29909;BME280;36247;51.952;6.146;2023-11-21T04:39:54;101103.88;;;7.99;100.00
29909;BME280;36247;51.952;6.146;2023-11-21T04:42:20;101105.47;;;7.93;100.00
29909;BME280;36247;51.952;6.146;2023-11-21T04:44:45;101117.19;;;8.03;100.00
29909;BME280;36247;51.952;6.146;2023-11-21T04:47:11;101114.47;;;8.00;100.00
29909;BME280;36247;51.952;6.146;2023-11-21T04:49:37;101112.84;;;8.05;100.00
29909;BME280;36247;51.952;6.146;2023-11-21T04:52:03;101119.75;;;8.00;100.00
29909;BME280;36247;51.952;6.146;2023-11-21T04:54:30;101122.38;;;8.00;100.00
29909;BME280;36247;51.952;6.146;2023-11-21T04:56:56;101134.53;;;7.95;100.00
29909;BME280;36247;51.952;6.146;2023-11-21T04:59:22;101136.31;;;7.96;100.00
29909;BME280;36247;51.952;6.146;2023-11-21T05:01:53;101139.09;;;8.01;100.00
29909;BME280;36247;51.952;6.146;2023-11-21T05:04:22;101142.72;;;8.04;100.00
29909;BME280;36247;51.952;6.146;2023-11-21T05:06:48;101141.25;;;8.14;100.00
29909;BME280;36247;51.952;6.146;2023-11-21T05:09:14;101140.41;;;8.15;100.00
29909;BME280;36247;51.952;6.146;2023-11-21T05:11:41;101150.75;;;8.09;100.00
29909;BME280;36247;51.952;6.146;2023-11-21T05:14:06;101150.09;;;8.16;100.00
29909;BME280;36247;51.952;6.146;2023-11-21T05:16:31;101151.25;;;8.26;100.00
29909;BME280;36247;51.952;6.146;2023-11-21T05:18:57;101157.53;;;8.31;100.00
29909;BME280;36247;51.952;6.146;2023-11-21T05:21:28;101157.00;;;8.11;100.00
29909;BME280;36247;51.952;6.146;2023-11-21T05:23:58;101158.13;;;8.21;100.00
29909;BME280;36247;51.952;6.146;2023-11-21T05:26:23;101161.69;;;8.21;100.00
29909;BME280;36247;51.952;6.146;2023-11-21T05:28:49;101171.56;;;8.28;100.00
29909;BME280;36247;51.952;6.146;2023-11-21T05:31:15;101178.19;;;8.14;100.00
29909;BME280;36247;51.952;6.146;2023-11-21T05:33:41;101178.34;;;8.20;100.00
29909;BME280;36247;51.952;6.146;2023-11-21T05:36:07;101179.28;;;8.22;100.00
29909;BME280;36247;51.952;6.146;2023-11-21T05:38:33;101196.88;;;8.22;100.00
29909;BME280;36247;51.952;6.146;2023-11-21T05:40:59;101193.50;;;8.26;100.00
29909;BME280;36247;51.952;6.146;2023-11-21T05:43:24;101191.81;;;8.29;100.00
29909;BME280;36247;51.952;6.146;2023-11-21T05:45:50;101196.88;;;8.22;100.00
29909;BME280;36247;51.952;6.146;2023-11-21T05:48:15;101189.09;;;8.26;100.00
29909;BME280;36247;51.952;6.146;2023-11-21T05:50:41;101195.00;;;8.18;100.00
29909;BME280;36247;51.952;6.146;2023-11-21T05:53:06;101198.72;;;8.24;100.00
29909;BME280;36247;51.952;6.146;2023-11-21T05:55:32;101199.56;;;8.23;100.00
29909;BME280;36247;51.952;6.146;2023-11-21T05:57:58;101204.03;;;8.26;100.00
29909;BME280;36247;51.952;6.146;2023-11-21T06:00:23;101204.19;;;8.30;100.00
29909;BME280;36247;51.952;6.146;2023-11-21T06:02:51;101207.81;;;8.36;100.00
29909;BME280;36247;51.952;6.146;2023-11-21T06:05:19;101214.69;;;8.29;100.00
29909;BME280;36247;51.952;6.146;2023-11-21T06:07:44;101211.84;;;8.21;100.00
29909;BME280;36247;51.952;6.146;2023-11-21T06:10:11;101217.47;;;8.34;100.00
29909;BME280;36247;51.952;6.146;2023-11-21T06:12:40;101220.00;;;8.30;100.00
29909;BME280;36247;51.952;6.146;2023-11-21T06:15:09;101222.97;;;8.41;100.00
29909;BME280;36247;51.952;6.146;2023-11-21T06:17:35;101227.41;;;8.42;100.00
29909;BME280;36247;51.952;6.146;2023-11-21T06:20:05;101231.66;;;8.39;100.00
29909;BME280;36247;51.952;6.146;2023-11-21T06:22:36;101232.63;;;8.41;100.00
29909;BME280;36247;51.952;6.146;2023-11-21T06:25:01;101232.41;;;8.33;100.00
29909;BME280;36247;51.952;6.146;2023-11-21T06:27:28;101239.47;;;8.34;100.00
29909;BME280;36247;51.952;6.146;2023-11-21T06:29:54;101237.81;;;8.38;100.00
29909;BME280;36247;51.952;6.146;2023-11-21T06:32:20;101238.03;;;8.44;100.00
29909;BME280;36247;51.952;6.146;2023-11-21T06:34:47;101245.84;;;8.41;100.00
29909;BME280;36247;51.952;6.146;2023-11-21T06:37:14;101251.97;;;8.40;100.00
29909;BME280;36247;51.952;6.146;2023-11-21T06:39:39;101251.81;;;8.35;100.00
29909;BME280;36247;51.952;6.146;2023-11-21T06:42:05;101261.47;;;8.33;100.00
29909;BME280;36247;51.952;6.146;2023-11-21T06:44:30;101264.13;;;8.35;100.00
29909;BME280;36247;51.952;6.146;2023-11-21T06:46:56;101268.88;;;8.45;100.00
29909;BME280;36247;51.952;6.146;2023-11-21T06:49:22;101266.38;;;8.50;100.00
29909;BME280;36247;51.952;6.146;2023-11-21T06:51:48;101261.03;;;8.48;100.00
29909;BME280;36247;51.952;6.146;2023-11-21T06:54:14;101268.94;;;8.46;100.00
29909;BME280;36247;51.952;6.146;2023-11-21T06:56:40;101261.13;;;8.51;100.00
29909;BME280;36247;51.952;6.146;2023-11-21T06:59:06;101276.81;;;8.45;100.00
29909;BME280;36247;51.952;6.146;2023-11-21T07:01:31;101278.56;;;8.46;100.00
29909;BME280;36247;51.952;6.146;2023-11-21T07:04:04;101274.34;;;8.51;100.00
29909;BME280;36247;51.952;6.146;2023-11-21T07:06:31;101284.91;;;8.51;100.00
29909;BME280;36247;51.952;6.146;2023-11-21T07:08:56;101292.16;;;8.58;100.00
29909;BME280;36247;51.952;6.146;2023-11-21T07:11:22;101284.81;;;8.48;100.00
29909;BME280;36247;51.952;6.146;2023-11-21T07:13:48;101293.94;;;8.59;100.00
29909;BME280;36247;51.952;6.146;2023-11-21T07:16:13;101293.88;;;8.58;100.00
29909;BME280;36247;51.952;6.146;2023-11-21T07:18:41;101298.91;;;8.49;100.00
29909;BME280;36247;51.952;6.146;2023-11-21T07:21:06;101308.66;;;8.51;100.00
29909;BME280;36247;51.952;6.146;2023-11-21T07:23:33;101316.59;;;8.51;100.00
29909;BME280;36247;51.952;6.146;2023-11-21T07:25:59;101321.78;;;8.48;100.00
29909;BME280;36247;51.952;6.146;2023-11-21T07:28:27;101327.31;;;8.28;100.00
29909;BME280;36247;51.952;6.146;2023-11-21T07:30:53;101335.72;;;8.44;100.00
29909;BME280;36247;51.952;6.146;2023-11-21T07:33:18;101331.56;;;8.52;100.00
29909;BME280;36247;51.952;6.146;2023-11-21T07:35:44;101344.66;;;8.49;100.00
29909;BME280;36247;51.952;6.146;2023-11-21T07:38:09;101343.75;;;8.47;100.00
29909;BME280;36247;51.952;6.146;2023-11-21T07:40:37;101348.13;;;8.46;100.00
29909;BME280;36247;51.952;6.146;2023-11-21T07:43:03;101351.09;;;8.57;100.00
29909;BME280;36247;51.952;6.146;2023-11-21T07:45:28;101353.59;;;8.53;100.00
29909;BME280;36247;51.952;6.146;2023-11-21T07:47:54;101358.84;;;8.51;100.00
29909;BME280;36247;51.952;6.146;2023-11-21T07:50:21;101353.09;;;8.64;100.00
29909;BME280;36247;51.952;6.146;2023-11-21T07:52:48;101363.28;;;8.54;100.00
29909;BME280;36247;51.952;6.146;2023-11-21T07:55:15;101363.56;;;8.61;100.00
29909;BME280;36247;51.952;6.146;2023-11-21T07:57:40;101365.50;;;8.69;100.00
29909;BME280;36247;51.952;6.146;2023-11-21T08:00:06;101366.09;;;8.58;100.00
29909;BME280;36247;51.952;6.146;2023-11-21T08:02:39;101368.94;;;8.64;100.00
29909;BME280;36247;51.952;6.146;2023-11-21T08:05:05;101375.88;;;8.62;100.00
29909;BME280;36247;51.952;6.146;2023-11-21T08:07:33;101382.03;;;8.61;100.00
29909;BME280;36247;51.952;6.146;2023-11-21T08:09:58;101385.97;;;8.76;100.00
29909;BME280;36247;51.952;6.146;2023-11-21T08:12:24;101392.75;;;8.66;100.00
29909;BME280;36247;51.952;6.146;2023-11-21T08:14:49;101395.34;;;8.64;100.00
29909;BME280;36247;51.952;6.146;2023-11-21T08:17:15;101395.63;;;8.74;100.00
29909;BME280;36247;51.952;6.146;2023-11-21T08:19:40;101397.94;;;8.63;100.00
29909;BME280;36247;51.952;6.146;2023-11-21T08:22:06;101406.00;;;8.68;100.00
29909;BME280;36247;51.952;6.146;2023-11-21T08:24:33;101419.38;;;8.74;100.00
29909;BME280;36247;51.952;6.146;2023-11-21T08:26:58;101413.22;;;8.73;100.00
29909;BME280;36247;51.952;6.146;2023-11-21T08:29:24;101416.56;;;8.68;100.00
29909;BME280;36247;51.952;6.146;2023-11-21T08:31:49;101412.22;;;8.70;100.00
29909;BME280;36247;51.952;6.146;2023-11-21T08:34:15;101415.66;;;8.67;100.00
29909;BME280;36247;51.952;6.146;2023-11-21T08:36:44;101428.63;;;8.59;100.00
29909;BME280;36247;51.952;6.146;2023-11-21T08:39:11;101438.50;;;8.65;100.00
29909;BME280;36247;51.952;6.146;2023-11-21T08:41:38;101436.59;;;8.61;100.00
29909;BME280;36247;51.952;6.146;2023-11-21T08:44:04;101442.63;;;8.57;100.00
29909;BME280;36247;51.952;6.146;2023-11-21T08:46:33;101440.88;;;8.57;100.00
29909;BME280;36247;51.952;6.146;2023-11-21T08:49:01;101438.16;;;8.54;100.00
29909;BME280;36247;51.952;6.146;2023-11-21T08:51:27;101442.97;;;8.68;100.00
29909;BME280;36247;51.952;6.146;2023-11-21T08:53:52;101447.19;;;8.62;100.00
29909;BME280;36247;51.952;6.146;2023-11-21T08:56:18;101448.91;;;8.60;100.00
29909;BME280;36247;51.952;6.146;2023-11-21T08:58:45;101452.47;;;8.62;100.00
29909;BME280;36247;51.952;6.146;2023-11-21T09:01:12;101445.06;;;8.78;100.00
29909;BME280;36247;51.952;6.146;2023-11-21T09:03:38;101457.84;;;8.65;100.00
29909;BME280;36247;51.952;6.146;2023-11-21T09:06:04;101452.38;;;8.59;100.00
29909;BME280;36247;51.952;6.146;2023-11-21T09:08:30;101460.97;;;8.79;100.00
29909;BME280;36247;51.952;6.146;2023-11-21T09:10:57;101457.19;;;9.02;100.00
29909;BME280;36247;51.952;6.146;2023-11-21T09:13:22;101462.84;;;9.12;100.00
29909;BME280;36247;51.952;6.146;2023-11-21T09:15:51;101464.72;;;9.18;100.00
29909;BME280;36247;51.952;6.146;2023-11-21T09:18:16;101478.63;;;8.82;100.00
29909;BME280;36247;51.952;6.146;2023-11-21T09:20:42;101474.19;;;9.10;100.00
29909;BME280;36247;51.952;6.146;2023-11-21T09:23:09;101471.91;;;9.22;100.00
29909;BME280;36247;51.952;6.146;2023-11-21T09:25:37;101486.09;;;9.24;100.00
29909;BME280;36247;51.952;6.146;2023-11-21T09:28:03;101480.91;;;9.27;100.00
29909;BME280;36247;51.952;6.146;2023-11-21T09:30:34;101485.31;;;9.28;100.00
29909;BME280;36247;51.952;6.146;2023-11-21T09:32:59;101490.47;;;9.24;100.00
29909;BME280;36247;51.952;6.146;2023-11-21T09:35:25;101495.53;;;9.16;100.00
29909;BME280;36247;51.952;6.146;2023-11-21T09:37:52;101509.53;;;9.13;100.00
29909;BME280;36247;51.952;6.146;2023-11-21T09:40:21;101516.09;;;9.26;100.00
29909;BME280;36247;51.952;6.146;2023-11-21T09:42:55;101514.31;;;9.25;100.00
29909;BME280;36247;51.952;6.146;2023-11-21T09:45:28;101519.78;;;9.31;100.00
29909;BME280;36247;51.952;6.146;2023-11-21T09:47:55;101515.44;;;9.33;100.00
29909;BME280;36247;51.952;6.146;2023-11-21T09:50:22;101516.06;;;9.25;100.00
29909;BME280;36247;51.952;6.146;2023-11-21T09:52:58;101514.69;;;9.38;100.00
29909;BME280;36247;51.952;6.146;2023-11-21T09:55:27;101521.00;;;9.43;100.00
29909;BME280;36247;51.952;6.146;2023-11-21T09:58:02;101535.31;;;9.49;100.00
29909;BME280;36247;51.952;6.146;2023-11-21T10:00:28;101539.72;;;9.50;100.00
29909;BME280;36247;51.952;6.146;2023-11-21T10:02:58;101540.75;;;9.54;100.00
29909;BME280;36247;51.952;6.146;2023-11-21T10:05:24;101533.66;;;9.53;100.00
29909;BME280;36247;51.952;6.146;2023-11-21T10:07:50;101544.22;;;9.53;100.00
29909;BME280;36247;51.952;6.146;2023-11-21T10:10:18;101549.44;;;9.50;100.00
29909;BME280;36247;51.952;6.146;2023-11-21T10:12:49;101542.41;;;9.52;100.00
29909;BME280;36247;51.952;6.146;2023-11-21T10:15:21;101550.28;;;9.49;100.00
29909;BME280;36247;51.952;6.146;2023-11-21T10:17:49;101553.97;;;9.54;100.00
29909;BME280;36247;51.952;6.146;2023-11-21T10:20:15;101562.56;;;9.47;100.00
29909;BME280;36247;51.952;6.146;2023-11-21T10:22:41;101565.56;;;9.59;100.00
29909;BME280;36247;51.952;6.146;2023-11-21T10:25:12;101567.94;;;9.80;100.00
29909;BME280;36247;51.952;6.146;2023-11-21T10:27:41;101572.34;;;9.80;100.00
29909;BME280;36247;51.952;6.146;2023-11-21T10:30:07;101565.69;;;9.94;100.00
29909;BME280;36247;51.952;6.146;2023-11-21T10:32:41;101550.03;;;10.02;100.00
29909;BME280;36247;51.952;6.146;2023-11-21T10:35:09;101554.16;;;9.92;100.00
29909;BME280;36247;51.952;6.146;2023-11-21T10:37:40;101552.13;;;10.14;100.00
29909;BME280;36247;51.952;6.146;2023-11-21T10:40:11;101567.97;;;10.12;100.00
29909;BME280;36247;51.952;6.146;2023-11-21T10:42:38;101570.22;;;10.30;100.00
29909;BME280;36247;51.952;6.146;2023-11-21T10:45:07;101583.16;;;10.21;100.00
29909;BME280;36247;51.952;6.146;2023-11-21T10:47:44;101577.19;;;10.28;100.00
29909;BME280;36247;51.952;6.146;2023-11-21T10:50:10;101580.16;;;10.07;100.00
29909;BME280;36247;51.952;6.146;2023-11-21T10:52:37;101585.75;;;10.18;100.00
29909;BME280;36247;51.952;6.146;2023-11-21T10:55:25;101582.25;;;10.19;100.00
29909;BME280;36247;51.952;6.146;2023-11-21T10:57:53;101587.25;;;10.08;100.00
29909;BME280;36247;51.952;6.146;2023-11-21T11:00:19;101592.59;;;10.10;100.00
29909;BME280;36247;51.952;6.146;2023-11-21T11:02:51;101584.28;;;10.29;100.00
29909;BME280;36247;51.952;6.146;2023-11-21T11:05:20;101582.03;;;10.11;100.00
29909;BME280;36247;51.952;6.146;2023-11-21T11:08:13;101580.03;;;10.02;100.00
29909;BME280;36247;51.952;6.146;2023-11-21T11:10:50;101589.84;;;10.06;100.00
29909;BME280;36247;51.952;6.146;2023-11-21T11:13:16;101591.09;;;9.87;100.00
29909;BME280;36247;51.952;6.146;2023-11-21T11:15:42;101593.22;;;10.01;100.00
29909;BME280;36247;51.952;6.146;2023-11-21T11:18:11;101595.00;;;10.00;100.00
29909;BME280;36247;51.952;6.146;2023-11-21T11:20:37;101597.53;;;9.97;100.00
29909;BME280;36247;51.952;6.146;2023-11-21T11:28:10;101603.69;;;10.28;100.00
29909;BME280;36247;51.952;6.146;2023-11-21T11:33:19;101622.81;;;10.18;100.00
29909;BME280;36247;51.952;6.146;2023-11-21T11:35:57;101627.25;;;10.19;100.00
29909;BME280;36247;51.952;6.146;2023-11-21T11:38:31;101619.19;;;10.14;100.00
29909;BME280;36247;51.952;6.146;2023-11-21T11:41:02;101632.25;;;10.08;100.00
29909;BME280;36247;51.952;6.146;2023-11-21T11:43:29;101633.81;;;10.01;100.00
29909;BME280;36247;51.952;6.146;2023-11-21T11:45:56;101631.13;;;10.00;100.00
29909;BME280;36247;51.952;6.146;2023-11-21T11:48:22;101639.19;;;10.04;100.00
29909;BME280;36247;51.952;6.146;2023-11-21T11:51:12;101653.13;;;9.97;100.00
29909;BME280;36247;51.952;6.146;2023-11-21T11:53:47;101640.84;;;9.99;100.00
29909;BME280;36247;51.952;6.146;2023-11-21T11:56:30;101654.94;;;10.00;100.00
29909;BME280;36247;51.952;6.146;2023-11-21T11:58:59;101660.13;;;9.95;100.00
29909;BME280;36247;51.952;6.146;2023-11-21T12:01:28;101661.25;;;9.75;100.00
29909;BME280;36247;51.952;6.146;2023-11-21T12:07:05;101664.22;;;9.84;100.00
29909;BME280;36247;51.952;6.146;2023-11-21T12:09:31;101659.72;;;9.81;100.00
29909;BME280;36247;51.952;6.146;2023-11-21T12:11:57;101663.16;;;9.79;100.00
29909;BME280;36247;51.952;6.146;2023-11-21T12:14:22;101663.13;;;9.77;100.00
29909;BME280;36247;51.952;6.146;2023-11-21T12:16:48;101665.72;;;9.76;100.00
29909;BME280;36247;51.952;6.146;2023-11-21T12:19:14;101669.19;;;9.75;100.00
29909;BME280;36247;51.952;6.146;2023-11-21T12:21:41;101677.09;;;9.73;100.00
29909;BME280;36247;51.952;6.146;2023-11-21T12:24:07;101670.34;;;9.83;100.00
29909;BME280;36247;51.952;6.146;2023-11-21T12:26:34;101679.25;;;9.86;100.00
29909;BME280;36247;51.952;6.146;2023-11-21T12:29:02;101686.88;;;9.76;100.00
29909;BME280;36247;51.952;6.146;2023-11-21T12:31:30;101688.78;;;9.80;100.00
29909;BME280;36247;51.952;6.146;2023-11-21T12:33:56;101688.69;;;9.77;100.00
29909;BME280;36247;51.952;6.146;2023-11-21T12:36:22;101683.44;;;9.78;100.00
29909;BME280;36247;51.952;6.146;2023-11-21T12:38:48;101697.47;;;9.76;100.00
29909;BME280;36247;51.952;6.146;2023-11-21T12:41:16;101696.25;;;9.64;100.00
29909;BME280;36247;51.952;6.146;2023-11-21T12:43:42;101705.25;;;9.71;100.00
29909;BME280;36247;51.952;6.146;2023-11-21T12:46:11;101710.03;;;9.83;100.00
29909;BME280;36247;51.952;6.146;2023-11-21T12:48:41;101709.06;;;9.79;100.00
29909;BME280;36247;51.952;6.146;2023-11-21T12:51:08;101714.03;;;9.70;100.00
29909;BME280;36247;51.952;6.146;2023-11-21T12:53:35;101716.91;;;9.78;100.00
29909;BME280;36247;51.952;6.146;2023-11-21T12:56:14;101721.38;;;9.79;100.00
29909;BME280;36247;51.952;6.146;2023-11-21T12:58:44;101714.97;;;9.70;100.00
29909;BME280;36247;51.952;6.146;2023-11-21T13:01:13;101720.06;;;9.64;100.00